sensor_id;sensor_type;location;lat;lon;timestamp;P1;durP1;ratioP1;P2;durP2;ratioP2
84031;SDS011;74113;46.556;24.570;2024-01-06T00:03:53;9.40;;;4.60;;
84031;SDS011;74113;46.556;24.570;2024-01-06T00:06:21;7.00;;;3.70;;
84031;SDS011;74113;46.556;24.570;2024-01-06T00:08:50;7.90;;;4.80;;
84031;SDS011;74113;46.556;24.570;2024-01-06T00:11:22;6.90;;;3.40;;
84031;SDS011;74113;46.556;24.570;2024-01-06T00:13:51;8.70;;;5.30;;
84031;SDS011;74113;46.556;24.570;2024-01-06T00:16:20;7.30;;;3.60;;
84031;SDS011;74113;46.556;24.570;2024-01-06T00:18:48;8.00;;;3.90;;
84031;SDS011;74113;46.556;24.570;2024-01-06T00:21:17;6.90;;;3.40;;
84031;SDS011;74113;46.556;24.570;2024-01-06T00:23:46;9.70;;;4.00;;
84031;SDS011;74113;46.556;24.570;2024-01-06T00:26:15;5.80;;;2.30;;
84031;SDS011;74113;46.556;24.570;2024-01-06T00:28:44;7.70;;;3.70;;
84031;SDS011;74113;46.556;24.570;2024-01-06T00:31:12;9.70;;;3.10;;
84031;SDS011;74113;46.556;24.570;2024-01-06T00:33:41;4.60;;;2.20;;
84031;SDS011;74113;46.556;24.570;2024-01-06T00:36:09;7.40;;;3.30;;
84031;SDS011;74113;46.556;24.570;2024-01-06T00:38:38;6.30;;;3.50;;
84031;SDS011;74113;46.556;24.570;2024-01-06T00:41:06;9.60;;;3.10;;
84031;SDS011;74113;46.556;24.570;2024-01-06T00:46:03;7.70;;;3.30;;
84031;SDS011;74113;46.556;24.570;2024-01-06T00:48:31;9.60;;;2.60;;
84031;SDS011;74113;46.556;24.570;2024-01-06T00:53:28;5.80;;;2.50;;
84031;SDS011;74113;46.556;24.570;2024-01-06T00:55:56;3.70;;;1.30;;
84031;SDS011;74113;46.556;24.570;2024-01-06T01:00:53;7.20;;;3.50;;
84031;SDS011;74113;46.556;24.570;2024-01-06T01:03:22;5.30;;;3.00;;
84031;SDS011;74113;46.556;24.570;2024-01-06T01:05:50;5.30;;;3.20;;
84031;SDS011;74113;46.556;24.570;2024-01-06T01:08:19;5.50;;;1.80;;
84031;SDS011;74113;46.556;24.570;2024-01-06T01:10:47;3.50;;;1.50;;
84031;SDS011;74113;46.556;24.570;2024-01-06T01:15:44;3.30;;;1.70;;
84031;SDS011;74113;46.556;24.570;2024-01-06T01:18:13;4.60;;;1.20;;
84031;SDS011;74113;46.556;24.570;2024-01-06T01:20:42;3.40;;;1.40;;
84031;SDS011;74113;46.556;24.570;2024-01-06T01:25:39;4.70;;;2.40;;
84031;SDS011;74113;46.556;24.570;2024-01-06T01:30:36;3.20;;;1.00;;
84031;SDS011;74113;46.556;24.570;2024-01-06T01:33:04;2.70;;;1.10;;
84031;SDS011;74113;46.556;24.570;2024-01-06T01:35:33;5.70;;;2.30;;
84031;SDS011;74113;46.556;24.570;2024-01-06T01:40:30;3.30;;;1.10;;
84031;SDS011;74113;46.556;24.570;2024-01-06T01:42:59;3.00;;;0.90;;
84031;SDS011;74113;46.556;24.570;2024-01-06T01:45:27;5.00;;;1.90;;
84031;SDS011;74113;46.556;24.570;2024-01-06T01:47:56;3.80;;;2.20;;
84031;SDS011;74113;46.556;24.570;2024-01-06T01:50:25;3.80;;;3.30;;
84031;SDS011;74113;46.556;24.570;2024-01-06T01:52:55;3.00;;;1.10;;
84031;SDS011;74113;46.556;24.570;2024-01-06T01:55:24;3.30;;;1.00;;
84031;SDS011;74113;46.556;24.570;2024-01-06T01:57:52;2.40;;;1.20;;
84031;SDS011;74113;46.556;24.570;2024-01-06T02:00:21;3.40;;;1.20;;
84031;SDS011;74113;46.556;24.570;2024-01-06T02:02:53;2.90;;;1.00;;
84031;SDS011;74113;46.556;24.570;2024-01-06T02:05:22;3.70;;;2.50;;
84031;SDS011;74113;46.556;24.570;2024-01-06T02:07:50;2.40;;;0.80;;
84031;SDS011;74113;46.556;24.570;2024-01-06T02:10:19;2.80;;;1.00;;
84031;SDS011;74113;46.556;24.570;2024-01-06T02:15:16;2.70;;;1.30;;
84031;SDS011;74113;46.556;24.570;2024-01-06T02:17:45;3.80;;;1.20;;
84031;SDS011;74113;46.556;24.570;2024-01-06T02:22:42;3.40;;;1.30;;
84031;SDS011;74113;46.556;24.570;2024-01-06T02:25:11;2.50;;;1.20;;
84031;SDS011;74113;46.556;24.570;2024-01-06T02:27:40;5.30;;;2.40;;
84031;SDS011;74113;46.556;24.570;2024-01-06T02:30:09;3.40;;;1.50;;
84031;SDS011;74113;46.556;24.570;2024-01-06T02:32:38;3.40;;;1.80;;
84031;SDS011;74113;46.556;24.570;2024-01-06T02:37:35;4.10;;;1.70;;
84031;SDS011;74113;46.556;24.570;2024-01-06T02:40:03;4.40;;;1.60;;
84031;SDS011;74113;46.556;24.570;2024-01-06T02:42:32;5.50;;;2.20;;
84031;SDS011;74113;46.556;24.570;2024-01-06T02:47:29;3.90;;;3.20;;
84031;SDS011;74113;46.556;24.570;2024-01-06T02:49:58;3.00;;;1.00;;
84031;SDS011;74113;46.556;24.570;2024-01-06T02:52:26;4.20;;;2.00;;
84031;SDS011;74113;46.556;24.570;2024-01-06T02:54:55;4.50;;;1.80;;
84031;SDS011;74113;46.556;24.570;2024-01-06T02:57:24;2.60;;;0.90;;
84031;SDS011;74113;46.556;24.570;2024-01-06T02:59:52;2.40;;;1.50;;
84031;SDS011;74113;46.556;24.570;2024-01-06T03:02:21;2.90;;;1.40;;
84031;SDS011;74113;46.556;24.570;2024-01-06T03:04:50;3.70;;;1.20;;
84031;SDS011;74113;46.556;24.570;2024-01-06T03:07:19;5.70;;;1.40;;
84031;SDS011;74113;46.556;24.570;2024-01-06T03:09:47;4.00;;;2.30;;
84031;SDS011;74113;46.556;24.570;2024-01-06T03:14:44;3.10;;;1.60;;
84031;SDS011;74113;46.556;24.570;2024-01-06T03:19:41;5.10;;;1.40;;
84031;SDS011;74113;46.556;24.570;2024-01-06T03:22:09;3.30;;;1.40;;
84031;SDS011;74113;46.556;24.570;2024-01-06T03:27:08;5.10;;;1.70;;
84031;SDS011;74113;46.556;24.570;2024-01-06T03:29:37;6.00;;;1.80;;
84031;SDS011;74113;46.556;24.570;2024-01-06T03:34:34;2.60;;;1.00;;
84031;SDS011;74113;46.556;24.570;2024-01-06T03:37:02;3.30;;;2.70;;
84031;SDS011;74113;46.556;24.570;2024-01-06T03:39:31;5.40;;;1.70;;
84031;SDS011;74113;46.556;24.570;2024-01-06T03:42:00;2.70;;;0.80;;
84031;SDS011;74113;46.556;24.570;2024-01-06T03:44:29;4.50;;;1.60;;
84031;SDS011;74113;46.556;24.570;2024-01-06T03:47:00;2.60;;;1.30;;
84031;SDS011;74113;46.556;24.570;2024-01-06T03:49:28;2.60;;;1.30;;
84031;SDS011;74113;46.556;24.570;2024-01-06T03:51:57;3.40;;;1.60;;
84031;SDS011;74113;46.556;24.570;2024-01-06T03:54:26;2.90;;;1.10;;
84031;SDS011;74113;46.556;24.570;2024-01-06T03:56:54;4.30;;;1.80;;
84031;SDS011;74113;46.556;24.570;2024-01-06T03:59:23;2.70;;;0.90;;
84031;SDS011;74113;46.556;24.570;2024-01-06T04:01:51;2.70;;;1.30;;
84031;SDS011;74113;46.556;24.570;2024-01-06T04:06:48;3.20;;;1.10;;
84031;SDS011;74113;46.556;24.570;2024-01-06T04:09:16;2.70;;;1.80;;
84031;SDS011;74113;46.556;24.570;2024-01-06T04:11:46;4.00;;;1.20;;
84031;SDS011;74113;46.556;24.570;2024-01-06T04:16:42;3.70;;;1.00;;
84031;SDS011;74113;46.556;24.570;2024-01-06T04:19:11;4.30;;;1.60;;
84031;SDS011;74113;46.556;24.570;2024-01-06T04:21:41;5.60;;;2.00;;
84031;SDS011;74113;46.556;24.570;2024-01-06T04:26:37;4.70;;;1.20;;
84031;SDS011;74113;46.556;24.570;2024-01-06T04:29:06;4.10;;;1.70;;
84031;SDS011;74113;46.556;24.570;2024-01-06T04:34:03;2.50;;;2.30;;
84031;SDS011;74113;46.556;24.570;2024-01-06T04:36:32;3.60;;;1.60;;
84031;SDS011;74113;46.556;24.570;2024-01-06T04:39:00;4.90;;;1.90;;
84031;SDS011;74113;46.556;24.570;2024-01-06T04:43:57;3.90;;;1.60;;
84031;SDS011;74113;46.556;24.570;2024-01-06T04:46:26;2.40;;;0.80;;
84031;SDS011;74113;46.556;24.570;2024-01-06T04:51:22;2.70;;;1.30;;
84031;SDS011;74113;46.556;24.570;2024-01-06T04:53:51;2.90;;;1.00;;
84031;SDS011;74113;46.556;24.570;2024-01-06T04:58:48;4.20;;;1.30;;
84031;SDS011;74113;46.556;24.570;2024-01-06T05:03:45;2.40;;;1.00;;
84031;SDS011;74113;46.556;24.570;2024-01-06T05:06:14;2.80;;;2.20;;
84031;SDS011;74113;46.556;24.570;2024-01-06T05:08:42;4.00;;;3.20;;
84031;SDS011;74113;46.556;24.570;2024-01-06T05:11:13;3.20;;;1.60;;
84031;SDS011;74113;46.556;24.570;2024-01-06T05:13:41;2.50;;;1.00;;
84031;SDS011;74113;46.556;24.570;2024-01-06T05:16:09;4.50;;;1.30;;
84031;SDS011;74113;46.556;24.570;2024-01-06T05:18:37;3.40;;;1.20;;
84031;SDS011;74113;46.556;24.570;2024-01-06T05:21:06;2.40;;;0.50;;
84031;SDS011;74113;46.556;24.570;2024-01-06T05:23:35;4.20;;;2.10;;
84031;SDS011;74113;46.556;24.570;2024-01-06T05:26:03;3.20;;;1.80;;
84031;SDS011;74113;46.556;24.570;2024-01-06T05:28:32;4.20;;;1.50;;
84031;SDS011;74113;46.556;24.570;2024-01-06T05:33:29;3.90;;;1.90;;
84031;SDS011;74113;46.556;24.570;2024-01-06T05:35:58;5.50;;;2.90;;
84031;SDS011;74113;46.556;24.570;2024-01-06T05:38:26;2.10;;;0.80;;
84031;SDS011;74113;46.556;24.570;2024-01-06T05:40:55;3.20;;;1.60;;
84031;SDS011;74113;46.556;24.570;2024-01-06T05:43:24;3.60;;;1.80;;
84031;SDS011;74113;46.556;24.570;2024-01-06T05:45:52;3.50;;;2.60;;
84031;SDS011;74113;46.556;24.570;2024-01-06T05:48:21;2.60;;;1.10;;
84031;SDS011;74113;46.556;24.570;2024-01-06T05:50:49;2.60;;;1.00;;
84031;SDS011;74113;46.556;24.570;2024-01-06T05:53:18;3.10;;;1.40;;
84031;SDS011;74113;46.556;24.570;2024-01-06T05:55:47;3.70;;;1.60;;
84031;SDS011;74113;46.556;24.570;2024-01-06T05:58:15;2.90;;;1.10;;
84031;SDS011;74113;46.556;24.570;2024-01-06T06:00:44;3.60;;;1.70;;
84031;SDS011;74113;46.556;24.570;2024-01-06T06:03:14;3.70;;;2.10;;
84031;SDS011;74113;46.556;24.570;2024-01-06T06:05:43;4.40;;;2.10;;
84031;SDS011;74113;46.556;24.570;2024-01-06T06:08:13;3.50;;;1.60;;
84031;SDS011;74113;46.556;24.570;2024-01-06T06:10:42;2.40;;;0.80;;
84031;SDS011;74113;46.556;24.570;2024-01-06T06:13:28;5.30;;;2.20;;
84031;SDS011;74113;46.556;24.570;2024-01-06T06:15:56;4.20;;;1.30;;
84031;SDS011;74113;46.556;24.570;2024-01-06T06:18:26;3.60;;;1.20;;
84031;SDS011;74113;46.556;24.570;2024-01-06T06:20:54;4.50;;;3.50;;
84031;SDS011;74113;46.556;24.570;2024-01-06T06:23:23;5.20;;;3.10;;
84031;SDS011;74113;46.556;24.570;2024-01-06T06:25:52;6.20;;;4.00;;
84031;SDS011;74113;46.556;24.570;2024-01-06T06:30:48;4.50;;;1.90;;
84031;SDS011;74113;46.556;24.570;2024-01-06T06:33:17;3.50;;;1.50;;
84031;SDS011;74113;46.556;24.570;2024-01-06T06:35:46;3.80;;;2.50;;
84031;SDS011;74113;46.556;24.570;2024-01-06T06:40:43;2.90;;;1.40;;
84031;SDS011;74113;46.556;24.570;2024-01-06T06:45:39;4.20;;;2.20;;
84031;SDS011;74113;46.556;24.570;2024-01-06T06:48:08;3.60;;;1.40;;
84031;SDS011;74113;46.556;24.570;2024-01-06T06:50:37;4.20;;;1.80;;
84031;SDS011;74113;46.556;24.570;2024-01-06T06:53:06;6.70;;;3.00;;
84031;SDS011;74113;46.556;24.570;2024-01-06T06:55:35;6.10;;;2.70;;
84031;SDS011;74113;46.556;24.570;2024-01-06T06:58:06;4.90;;;1.80;;
84031;SDS011;74113;46.556;24.570;2024-01-06T07:00:34;5.30;;;1.80;;
84031;SDS011;74113;46.556;24.570;2024-01-06T07:03:03;5.90;;;2.00;;
84031;SDS011;74113;46.556;24.570;2024-01-06T07:05:32;4.70;;;1.50;;
84031;SDS011;74113;46.556;24.570;2024-01-06T07:08:02;4.40;;;1.70;;
84031;SDS011;74113;46.556;24.570;2024-01-06T07:10:30;3.10;;;1.70;;
84031;SDS011;74113;46.556;24.570;2024-01-06T07:12:59;3.20;;;1.30;;
84031;SDS011;74113;46.556;24.570;2024-01-06T07:15:27;4.80;;;3.00;;
84031;SDS011;74113;46.556;24.570;2024-01-06T07:17:56;4.70;;;1.30;;
84031;SDS011;74113;46.556;24.570;2024-01-06T07:20:25;2.90;;;1.40;;
84031;SDS011;74113;46.556;24.570;2024-01-06T07:22:53;3.10;;;1.00;;
84031;SDS011;74113;46.556;24.570;2024-01-06T07:25:22;5.80;;;4.40;;
84031;SDS011;74113;46.556;24.570;2024-01-06T07:27:50;3.50;;;1.90;;
84031;SDS011;74113;46.556;24.570;2024-01-06T07:30:22;3.70;;;1.60;;
84031;SDS011;74113;46.556;24.570;2024-01-06T07:32:51;3.50;;;2.00;;
84031;SDS011;74113;46.556;24.570;2024-01-06T07:35:20;3.80;;;1.30;;
84031;SDS011;74113;46.556;24.570;2024-01-06T07:37:48;4.70;;;2.20;;
84031;SDS011;74113;46.556;24.570;2024-01-06T07:40:17;3.80;;;1.20;;
84031;SDS011;74113;46.556;24.570;2024-01-06T07:42:46;6.70;;;4.00;;
84031;SDS011;74113;46.556;24.570;2024-01-06T07:45:14;3.90;;;1.80;;
84031;SDS011;74113;46.556;24.570;2024-01-06T07:47:43;6.20;;;2.70;;
84031;SDS011;74113;46.556;24.570;2024-01-06T07:50:12;3.30;;;1.90;;
84031;SDS011;74113;46.556;24.570;2024-01-06T07:52:40;4.30;;;1.70;;
84031;SDS011;74113;46.556;24.570;2024-01-06T07:55:09;6.40;;;1.90;;
84031;SDS011;74113;46.556;24.570;2024-01-06T07:57:38;3.90;;;2.00;;
84031;SDS011;74113;46.556;24.570;2024-01-06T08:00:06;6.80;;;2.10;;
84031;SDS011;74113;46.556;24.570;2024-01-06T08:02:42;5.70;;;4.70;;
84031;SDS011;74113;46.556;24.570;2024-01-06T08:05:11;3.20;;;1.10;;
84031;SDS011;74113;46.556;24.570;2024-01-06T08:07:40;3.70;;;1.40;;
84031;SDS011;74113;46.556;24.570;2024-01-06T08:10:08;4.40;;;1.30;;
84031;SDS011;74113;46.556;24.570;2024-01-06T08:12:37;3.50;;;1.20;;
84031;SDS011;74113;46.556;24.570;2024-01-06T08:15:06;4.90;;;2.00;;
84031;SDS011;74113;46.556;24.570;2024-01-06T08:17:37;4.20;;;1.50;;
84031;SDS011;74113;46.556;24.570;2024-01-06T08:20:08;5.50;;;2.40;;
84031;SDS011;74113;46.556;24.570;2024-01-06T08:22:37;4.30;;;1.40;;
84031;SDS011;74113;46.556;24.570;2024-01-06T08:25:06;3.40;;;1.40;;
84031;SDS011;74113;46.556;24.570;2024-01-06T08:27:35;5.50;;;2.50;;
84031;SDS011;74113;46.556;24.570;2024-01-06T08:30:04;4.30;;;2.30;;
84031;SDS011;74113;46.556;24.570;2024-01-06T08:32:34;4.80;;;1.80;;
84031;SDS011;74113;46.556;24.570;2024-01-06T08:35:03;7.10;;;4.10;;
84031;SDS011;74113;46.556;24.570;2024-01-06T08:37:32;9.40;;;4.20;;
84031;SDS011;74113;46.556;24.570;2024-01-06T08:40:01;7.60;;;4.00;;
84031;SDS011;74113;46.556;24.570;2024-01-06T08:42:31;10.00;;;5.60;;
84031;SDS011;74113;46.556;24.570;2024-01-06T08:45:00;8.90;;;5.10;;
84031;SDS011;74113;46.556;24.570;2024-01-06T08:47:29;8.50;;;5.30;;
84031;SDS011;74113;46.556;24.570;2024-01-06T08:49:57;8.70;;;3.90;;
84031;SDS011;74113;46.556;24.570;2024-01-06T08:52:26;7.20;;;2.90;;
84031;SDS011;74113;46.556;24.570;2024-01-06T08:54:55;9.00;;;3.50;;
84031;SDS011;74113;46.556;24.570;2024-01-06T08:57:23;7.00;;;3.50;;
84031;SDS011;74113;46.556;24.570;2024-01-06T08:59:52;7.30;;;2.90;;
84031;SDS011;74113;46.556;24.570;2024-01-06T09:02:20;5.70;;;2.90;;
84031;SDS011;74113;46.556;24.570;2024-01-06T09:04:49;9.80;;;7.20;;
84031;SDS011;74113;46.556;24.570;2024-01-06T09:07:18;9.10;;;4.80;;
84031;SDS011;74113;46.556;24.570;2024-01-06T09:09:46;10.40;;;6.80;;
84031;SDS011;74113;46.556;24.570;2024-01-06T09:12:15;11.20;;;5.00;;
84031;SDS011;74113;46.556;24.570;2024-01-06T09:14:44;6.90;;;3.40;;
84031;SDS011;74113;46.556;24.570;2024-01-06T09:17:12;9.50;;;5.60;;
84031;SDS011;74113;46.556;24.570;2024-01-06T09:19:41;10.50;;;5.40;;
84031;SDS011;74113;46.556;24.570;2024-01-06T09:24:38;6.20;;;4.20;;
84031;SDS011;74113;46.556;24.570;2024-01-06T09:27:06;7.50;;;3.50;;
84031;SDS011;74113;46.556;24.570;2024-01-06T09:29:35;6.80;;;2.40;;
84031;SDS011;74113;46.556;24.570;2024-01-06T09:32:04;4.70;;;2.10;;
84031;SDS011;74113;46.556;24.570;2024-01-06T09:34:32;3.50;;;2.00;;
84031;SDS011;74113;46.556;24.570;2024-01-06T09:37:06;8.70;;;5.20;;
84031;SDS011;74113;46.556;24.570;2024-01-06T09:39:35;10.20;;;5.70;;
84031;SDS011;74113;46.556;24.570;2024-01-06T09:42:04;12.30;;;5.20;;
84031;SDS011;74113;46.556;24.570;2024-01-06T09:44:33;9.50;;;4.80;;
84031;SDS011;74113;46.556;24.570;2024-01-06T09:47:02;7.70;;;4.70;;
84031;SDS011;74113;46.556;24.570;2024-01-06T09:49:33;8.90;;;4.80;;
84031;SDS011;74113;46.556;24.570;2024-01-06T09:52:13;11.00;;;5.00;;
84031;SDS011;74113;46.556;24.570;2024-01-06T09:54:46;10.30;;;5.50;;
84031;SDS011;74113;46.556;24.570;2024-01-06T09:57:20;12.00;;;3.30;;
84031;SDS011;74113;46.556;24.570;2024-01-06T09:59:49;9.40;;;5.90;;
84031;SDS011;74113;46.556;24.570;2024-01-06T10:02:18;11.30;;;5.90;;
84031;SDS011;74113;46.556;24.570;2024-01-06T10:04:48;8.10;;;4.30;;
84031;SDS011;74113;46.556;24.570;2024-01-06T10:07:17;4.90;;;2.60;;
84031;SDS011;74113;46.556;24.570;2024-01-06T10:09:46;10.10;;;5.70;;
84031;SDS011;74113;46.556;24.570;2024-01-06T10:12:15;5.70;;;2.80;;
84031;SDS011;74113;46.556;24.570;2024-01-06T10:14:44;6.50;;;3.20;;
84031;SDS011;74113;46.556;24.570;2024-01-06T10:17:12;6.20;;;3.50;;
84031;SDS011;74113;46.556;24.570;2024-01-06T10:19:44;10.20;;;5.40;;
84031;SDS011;74113;46.556;24.570;2024-01-06T10:22:13;7.50;;;5.00;;
84031;SDS011;74113;46.556;24.570;2024-01-06T10:24:42;11.90;;;5.90;;
84031;SDS011;74113;46.556;24.570;2024-01-06T10:27:11;8.20;;;4.00;;
84031;SDS011;74113;46.556;24.570;2024-01-06T10:29:40;7.80;;;4.60;;
84031;SDS011;74113;46.556;24.570;2024-01-06T10:32:08;9.10;;;5.80;;
84031;SDS011;74113;46.556;24.570;2024-01-06T10:34:37;6.80;;;3.30;;
84031;SDS011;74113;46.556;24.570;2024-01-06T10:37:06;7.60;;;5.50;;
84031;SDS011;74113;46.556;24.570;2024-01-06T10:39:35;4.70;;;2.80;;
84031;SDS011;74113;46.556;24.570;2024-01-06T10:42:06;5.90;;;3.20;;
84031;SDS011;74113;46.556;24.570;2024-01-06T10:44:34;7.70;;;4.30;;
84031;SDS011;74113;46.556;24.570;2024-01-06T10:47:06;7.50;;;4.50;;
84031;SDS011;74113;46.556;24.570;2024-01-06T10:49:36;12.70;;;7.40;;
84031;SDS011;74113;46.556;24.570;2024-01-06T10:52:05;9.90;;;6.50;;
84031;SDS011;74113;46.556;24.570;2024-01-06T10:54:34;10.60;;;3.70;;
84031;SDS011;74113;46.556;24.570;2024-01-06T10:57:04;7.90;;;3.90;;
84031;SDS011;74113;46.556;24.570;2024-01-06T10:59:35;13.50;;;7.30;;
84031;SDS011;74113;46.556;24.570;2024-01-06T11:02:05;14.80;;;7.80;;
84031;SDS011;74113;46.556;24.570;2024-01-06T11:04:35;12.00;;;5.30;;
84031;SDS011;74113;46.556;24.570;2024-01-06T11:07:05;10.80;;;6.70;;
84031;SDS011;74113;46.556;24.570;2024-01-06T11:09:34;14.10;;;5.90;;
84031;SDS011;74113;46.556;24.570;2024-01-06T11:12:08;8.30;;;4.70;;
84031;SDS011;74113;46.556;24.570;2024-01-06T11:14:37;7.90;;;3.60;;
84031;SDS011;74113;46.556;24.570;2024-01-06T11:17:05;12.00;;;7.00;;
84031;SDS011;74113;46.556;24.570;2024-01-06T11:22:18;13.30;;;7.10;;
84031;SDS011;74113;46.556;24.570;2024-01-06T11:24:47;7.60;;;5.00;;
84031;SDS011;74113;46.556;24.570;2024-01-06T11:27:21;7.10;;;5.90;;
84031;SDS011;74113;46.556;24.570;2024-01-06T11:29:58;8.00;;;4.60;;
84031;SDS011;74113;46.556;24.570;2024-01-06T11:32:35;10.70;;;6.10;;
84031;SDS011;74113;46.556;24.570;2024-01-06T11:35:08;6.80;;;4.40;;
84031;SDS011;74113;46.556;24.570;2024-01-06T11:40:10;7.30;;;3.60;;
84031;SDS011;74113;46.556;24.570;2024-01-06T11:45:37;9.30;;;4.10;;
84031;SDS011;74113;46.556;24.570;2024-01-06T11:48:10;10.30;;;6.40;;
84031;SDS011;74113;46.556;24.570;2024-01-06T11:50:42;8.40;;;4.60;;
84031;SDS011;74113;46.556;24.570;2024-01-06T11:53:11;7.40;;;5.30;;
84031;SDS011;74113;46.556;24.570;2024-01-06T11:55:39;11.40;;;7.30;;
84031;SDS011;74113;46.556;24.570;2024-01-06T11:58:08;9.10;;;4.80;;
84031;SDS011;74113;46.556;24.570;2024-01-06T12:00:37;11.50;;;6.80;;
84031;SDS011;74113;46.556;24.570;2024-01-06T12:03:08;10.60;;;5.80;;
84031;SDS011;74113;46.556;24.570;2024-01-06T12:05:37;11.50;;;6.00;;
84031;SDS011;74113;46.556;24.570;2024-01-06T12:08:06;8.60;;;4.20;;
84031;SDS011;74113;46.556;24.570;2024-01-06T12:10:36;7.90;;;4.30;;
84031;SDS011;74113;46.556;24.570;2024-01-06T12:13:06;5.80;;;3.00;;
84031;SDS011;74113;46.556;24.570;2024-01-06T12:15:41;6.80;;;3.10;;
84031;SDS011;74113;46.556;24.570;2024-01-06T12:18:09;7.00;;;3.60;;
84031;SDS011;74113;46.556;24.570;2024-01-06T12:20:38;7.90;;;4.60;;
84031;SDS011;74113;46.556;24.570;2024-01-06T12:23:06;10.30;;;4.60;;
84031;SDS011;74113;46.556;24.570;2024-01-06T12:25:35;9.50;;;5.00;;
84031;SDS011;74113;46.556;24.570;2024-01-06T12:28:08;14.30;;;7.00;;
84031;SDS011;74113;46.556;24.570;2024-01-06T12:30:38;8.80;;;4.90;;
84031;SDS011;74113;46.556;24.570;2024-01-06T12:33:07;9.30;;;4.20;;
84031;SDS011;74113;46.556;24.570;2024-01-06T12:35:36;11.40;;;6.00;;
84031;SDS011;74113;46.556;24.570;2024-01-06T12:38:05;11.90;;;7.20;;
84031;SDS011;74113;46.556;24.570;2024-01-06T12:40:36;15.30;;;8.70;;
84031;SDS011;74113;46.556;24.570;2024-01-06T12:43:05;11.40;;;7.10;;
84031;SDS011;74113;46.556;24.570;2024-01-06T12:45:35;12.70;;;6.50;;
84031;SDS011;74113;46.556;24.570;2024-01-06T12:48:03;15.50;;;8.00;;
84031;SDS011;74113;46.556;24.570;2024-01-06T12:50:32;12.90;;;7.00;;
84031;SDS011;74113;46.556;24.570;2024-01-06T12:53:01;16.70;;;8.90;;
84031;SDS011;74113;46.556;24.570;2024-01-06T12:55:29;12.40;;;7.20;;
84031;SDS011;74113;46.556;24.570;2024-01-06T12:57:58;12.10;;;7.30;;
84031;SDS011;74113;46.556;24.570;2024-01-06T13:00:30;12.90;;;8.00;;
84031;SDS011;74113;46.556;24.570;2024-01-06T13:03:03;17.40;;;10.70;;
84031;SDS011;74113;46.556;24.570;2024-01-06T13:05:33;11.90;;;7.40;;
84031;SDS011;74113;46.556;24.570;2024-01-06T13:08:02;13.80;;;8.70;;
84031;SDS011;74113;46.556;24.570;2024-01-06T13:10:31;10.80;;;5.60;;
84031;SDS011;74113;46.556;24.570;2024-01-06T13:13:00;11.60;;;6.40;;
84031;SDS011;74113;46.556;24.570;2024-01-06T13:15:28;8.70;;;5.70;;
84031;SDS011;74113;46.556;24.570;2024-01-06T13:17:57;9.40;;;4.80;;
84031;SDS011;74113;46.556;24.570;2024-01-06T13:20:26;7.80;;;4.50;;
84031;SDS011;74113;46.556;24.570;2024-01-06T13:22:54;8.40;;;5.00;;
84031;SDS011;74113;46.556;24.570;2024-01-06T13:25:24;8.10;;;4.00;;
84031;SDS011;74113;46.556;24.570;2024-01-06T13:27:52;10.70;;;4.20;;
84031;SDS011;74113;46.556;24.570;2024-01-06T13:30:21;8.80;;;4.30;;
84031;SDS011;74113;46.556;24.570;2024-01-06T13:32:49;5.20;;;2.80;;
84031;SDS011;74113;46.556;24.570;2024-01-06T13:35:22;8.20;;;3.70;;
84031;SDS011;74113;46.556;24.570;2024-01-06T13:37:54;7.90;;;4.40;;
84031;SDS011;74113;46.556;24.570;2024-01-06T13:40:23;9.10;;;4.10;;
84031;SDS011;74113;46.556;24.570;2024-01-06T13:42:52;9.40;;;5.20;;
84031;SDS011;74113;46.556;24.570;2024-01-06T13:45:22;11.70;;;4.10;;
84031;SDS011;74113;46.556;24.570;2024-01-06T13:47:51;10.80;;;5.30;;
84031;SDS011;74113;46.556;24.570;2024-01-06T13:50:20;10.70;;;5.40;;
84031;SDS011;74113;46.556;24.570;2024-01-06T13:52:48;8.20;;;3.80;;
84031;SDS011;74113;46.556;24.570;2024-01-06T13:55:17;14.30;;;7.20;;
84031;SDS011;74113;46.556;24.570;2024-01-06T13:57:46;13.30;;;6.60;;
84031;SDS011;74113;46.556;24.570;2024-01-06T14:00:14;12.10;;;5.70;;
84031;SDS011;74113;46.556;24.570;2024-01-06T14:02:48;10.50;;;5.30;;
84031;SDS011;74113;46.556;24.570;2024-01-06T14:05:17;11.80;;;7.80;;
84031;SDS011;74113;46.556;24.570;2024-01-06T14:07:47;14.70;;;7.30;;
84031;SDS011;74113;46.556;24.570;2024-01-06T14:10:19;12.90;;;5.20;;
84031;SDS011;74113;46.556;24.570;2024-01-06T14:12:47;9.70;;;5.60;;
84031;SDS011;74113;46.556;24.570;2024-01-06T14:15:16;9.00;;;4.90;;
84031;SDS011;74113;46.556;24.570;2024-01-06T14:17:46;18.90;;;8.90;;
84031;SDS011;74113;46.556;24.570;2024-01-06T14:20:18;12.20;;;6.40;;
84031;SDS011;74113;46.556;24.570;2024-01-06T14:22:47;9.00;;;4.60;;
84031;SDS011;74113;46.556;24.570;2024-01-06T14:25:18;9.00;;;4.70;;
84031;SDS011;74113;46.556;24.570;2024-01-06T14:27:47;7.70;;;4.40;;
84031;SDS011;74113;46.556;24.570;2024-01-06T14:30:16;10.00;;;5.10;;
84031;SDS011;74113;46.556;24.570;2024-01-06T14:32:45;13.10;;;5.90;;
84031;SDS011;74113;46.556;24.570;2024-01-06T14:35:14;11.20;;;4.80;;
84031;SDS011;74113;46.556;24.570;2024-01-06T14:37:44;9.60;;;5.30;;
84031;SDS011;74113;46.556;24.570;2024-01-06T14:40:12;13.60;;;5.50;;
84031;SDS011;74113;46.556;24.570;2024-01-06T14:42:42;7.00;;;3.10;;
84031;SDS011;74113;46.556;24.570;2024-01-06T14:45:11;5.00;;;3.20;;
84031;SDS011;74113;46.556;24.570;2024-01-06T14:47:40;7.70;;;5.70;;
84031;SDS011;74113;46.556;24.570;2024-01-06T14:50:08;7.10;;;4.00;;
84031;SDS011;74113;46.556;24.570;2024-01-06T14:52:37;6.40;;;3.80;;
84031;SDS011;74113;46.556;24.570;2024-01-06T14:55:05;7.40;;;4.00;;
84031;SDS011;74113;46.556;24.570;2024-01-06T14:57:35;6.30;;;3.00;;
84031;SDS011;74113;46.556;24.570;2024-01-06T15:00:04;7.20;;;4.00;;
84031;SDS011;74113;46.556;24.570;2024-01-06T15:02:34;10.90;;;5.80;;
84031;SDS011;74113;46.556;24.570;2024-01-06T15:05:03;11.70;;;5.40;;
84031;SDS011;74113;46.556;24.570;2024-01-06T15:07:32;13.50;;;9.90;;
84031;SDS011;74113;46.556;24.570;2024-01-06T15:10:01;11.90;;;6.10;;
84031;SDS011;74113;46.556;24.570;2024-01-06T15:12:31;14.40;;;8.20;;
84031;SDS011;74113;46.556;24.570;2024-01-06T15:15:00;8.20;;;4.10;;
84031;SDS011;74113;46.556;24.570;2024-01-06T15:17:29;10.30;;;5.80;;
84031;SDS011;74113;46.556;24.570;2024-01-06T15:19:58;11.00;;;6.90;;
84031;SDS011;74113;46.556;24.570;2024-01-06T15:22:27;9.00;;;4.50;;
84031;SDS011;74113;46.556;24.570;2024-01-06T15:24:56;12.90;;;7.20;;
84031;SDS011;74113;46.556;24.570;2024-01-06T15:27:25;9.30;;;5.10;;
84031;SDS011;74113;46.556;24.570;2024-01-06T15:29:54;7.40;;;4.30;;
84031;SDS011;74113;46.556;24.570;2024-01-06T15:32:23;6.60;;;3.40;;
84031;SDS011;74113;46.556;24.570;2024-01-06T15:34:51;12.20;;;7.90;;
84031;SDS011;74113;46.556;24.570;2024-01-06T15:37:20;9.20;;;5.60;;
84031;SDS011;74113;46.556;24.570;2024-01-06T15:39:48;10.60;;;4.50;;
84031;SDS011;74113;46.556;24.570;2024-01-06T15:42:17;9.30;;;4.50;;
84031;SDS011;74113;46.556;24.570;2024-01-06T15:44:46;8.50;;;4.90;;
84031;SDS011;74113;46.556;24.570;2024-01-06T15:47:14;10.50;;;5.90;;
84031;SDS011;74113;46.556;24.570;2024-01-06T15:49:42;8.80;;;5.00;;
84031;SDS011;74113;46.556;24.570;2024-01-06T15:52:11;9.80;;;6.00;;
84031;SDS011;74113;46.556;24.570;2024-01-06T15:54:40;12.40;;;6.50;;
84031;SDS011;74113;46.556;24.570;2024-01-06T15:57:09;9.20;;;4.90;;
84031;SDS011;74113;46.556;24.570;2024-01-06T15:59:37;9.00;;;5.10;;
84031;SDS011;74113;46.556;24.570;2024-01-06T16:02:06;9.40;;;4.40;;